createdAt,value
2022-10-21T00:01:49.761Z,100820.38
2022-10-21T00:04:16.282Z,100811.53
2022-10-21T00:06:42.900Z,100821.97
2022-10-21T00:09:09.534Z,100824.03
2022-10-21T00:11:36.140Z,100817.53
2022-10-21T00:14:03.045Z,100809.72
2022-10-21T00:16:29.679Z,100807.38
2022-10-21T00:18:56.238Z,100824.03
2022-10-21T00:21:23.288Z,100803.22
2022-10-21T00:23:50.277Z,100794.06
2022-10-21T00:26:18.044Z,100811.81
2022-10-21T00:28:44.803Z,100798.00
2022-10-21T00:31:13.108Z,100807.38
2022-10-21T00:33:39.975Z,100798.81
2022-10-21T00:36:14.545Z,100793.09
2022-10-21T00:38:43.562Z,100782.63
2022-10-21T00:41:10.457Z,100776.69
2022-10-21T00:43:58.684Z,100775.31
2022-10-21T00:46:40.040Z,100776.91
2022-10-21T00:49:14.401Z,100777.19
2022-10-21T00:51:41.954Z,100769.38
2022-10-21T00:54:09.746Z,100754.81
2022-10-21T00:56:36.714Z,100749.88
2022-10-21T00:59:05.535Z,100745.44
2022-10-21T01:01:32.415Z,100745.72
2022-10-21T01:04:01.278Z,100731.44
2022-10-21T01:06:28.828Z,100731.44
2022-10-21T01:08:57.059Z,100736.38
2022-10-21T01:11:25.662Z,100735.56
2022-10-21T01:14:13.089Z,100724.63
2022-10-21T01:16:50.407Z,100725.41
2022-10-21T01:19:53.465Z,100710.81
2022-10-21T01:22:44.444Z,100717.34
2022-10-21T01:25:45.221Z,100722.25
2022-10-21T01:28:29.639Z,100722.25
2022-10-21T01:31:00.374Z,100697.50
2022-10-21T01:33:38.205Z,100709.25
2022-10-21T01:36:13.291Z,100712.38
2022-10-21T01:38:54.603Z,100710.81
2022-10-21T01:41:28.627Z,100718.09
2022-10-21T01:44:13.786Z,100719.38
2022-10-21T01:46:51.504Z,100716.53
2022-10-21T01:49:31.639Z,100696.72
2022-10-21T01:52:00.560Z,100699.38
2022-10-21T01:54:32.479Z,100697.00
2022-10-21T01:57:00.957Z,100690.78
2022-10-21T01:59:30.639Z,100690.00
2022-10-21T02:02:00.175Z,100680.34
2022-10-21T02:04:28.967Z,100672.25
2022-10-21T02:06:55.576Z,100666.84
2022-10-21T02:09:22.244Z,100666.03
2022-10-21T02:11:51.830Z,100662.09
2022-10-21T02:14:45.078Z,100642.59
2022-10-21T02:17:15.137Z,100646.72
2022-10-21T02:19:42.020Z,100652.44
2022-10-21T02:22:11.984Z,100665.47
2022-10-21T02:24:42.381Z,100651.16
2022-10-21T02:27:08.970Z,100651.38
2022-10-21T02:29:40.112Z,100654.03
2022-10-21T02:32:20.476Z,100645.16
2022-10-21T02:35:08.941Z,100644.06
2022-10-21T02:38:04.681Z,100631.50
2022-10-21T02:40:43.209Z,100617.22
2022-10-21T02:43:15.518Z,100629.00
2022-10-21T02:45:42.280Z,100631.84
2022-10-21T02:48:08.769Z,100617.22
2022-10-21T02:50:35.384Z,100627.41
2022-10-21T02:53:02.118Z,100615.66
2022-10-21T02:55:28.636Z,100612.78
2022-10-21T02:57:55.147Z,100616.16
2022-10-21T03:00:21.736Z,100618.50
2022-10-21T03:02:48.394Z,100617.69
2022-10-21T03:05:15.086Z,100611.41
2022-10-21T03:07:41.802Z,100606.47
2022-10-21T03:10:08.723Z,100624.63
2022-10-21T03:12:35.264Z,100632.50
2022-10-21T03:15:01.889Z,100636.66
2022-10-21T03:17:28.378Z,100645.22
2022-10-21T03:19:54.945Z,100625.22
2022-10-21T03:22:21.551Z,100619.22
2022-10-21T03:24:48.092Z,100607.19
2022-10-21T03:27:14.661Z,100613.19
2022-10-21T03:29:41.154Z,100608.44
2022-10-21T03:32:07.698Z,100602.75
2022-10-21T03:34:34.254Z,100588.75
2022-10-21T03:37:00.809Z,100611.91
2022-10-21T03:39:27.401Z,100594.66
2022-10-21T03:41:53.962Z,100585.91
2022-10-21T03:44:20.470Z,100587.47
2022-10-21T03:46:47.059Z,100592.41
2022-10-21T03:49:19.984Z,100587.16
2022-10-21T03:51:47.901Z,100590.25
2022-10-21T03:54:14.686Z,100582.44
2022-10-21T03:56:41.250Z,100568.47
2022-10-21T03:59:07.752Z,100566.28
2022-10-21T04:01:34.370Z,100577.50
2022-10-21T04:04:01.003Z,100573.59
2022-10-21T04:06:27.572Z,100558.78
2022-10-21T04:08:54.368Z,100562.44
2022-10-21T04:11:20.974Z,100565.28
2022-10-21T04:13:47.466Z,100553.84
2022-10-21T04:16:17.550Z,100546.56
2022-10-21T04:18:44.113Z,100548.34
2022-10-21T04:21:11.183Z,100533.28
2022-10-21T04:23:38.101Z,100532.78
2022-10-21T04:26:05.551Z,100522.13
2022-10-21T04:28:32.911Z,100522.63
2022-10-21T04:30:59.477Z,100524.69
2022-10-21T04:33:26.560Z,100522.34
2022-10-21T04:35:58.827Z,100517.63
2022-10-21T04:38:25.654Z,100515.81
2022-10-21T04:40:59.817Z,100515.81
2022-10-21T04:43:26.844Z,100505.59
2022-10-21T04:45:54.165Z,100497.50
2022-10-21T04:48:21.801Z,100504.00
2022-10-21T04:50:52.799Z,100510.03
2022-10-21T04:53:19.757Z,100514.16
2022-10-21T04:55:53.003Z,100504.31
2022-10-21T04:58:22.064Z,100503.22
2022-10-21T05:00:50.438Z,100510.53
2022-10-21T05:03:17.456Z,100510.53
2022-10-21T05:05:44.118Z,100494.66
2022-10-21T05:08:11.755Z,100501.34
2022-10-21T05:10:38.595Z,100506.59
2022-10-21T05:13:06.110Z,100500.09
2022-10-21T05:15:33.681Z,100495.66
2022-10-21T05:18:00.387Z,100492.78
2022-10-21T05:20:26.954Z,100496.63
2022-10-21T05:22:53.766Z,100496.13
2022-10-21T05:25:20.871Z,100493.78
2022-10-21T05:27:47.631Z,100493.00
2022-10-21T05:30:14.366Z,100505.53
2022-10-21T05:32:41.848Z,100503.66
2022-10-21T05:35:08.790Z,100493.78
2022-10-21T05:37:35.305Z,100482.34
2022-10-21T05:40:02.122Z,100484.16
2022-10-21T05:42:28.713Z,100500.00
2022-10-21T05:44:55.239Z,100489.06
2022-10-21T05:47:23.762Z,100484.63
2022-10-21T05:49:50.769Z,100492.41
2022-10-21T05:52:17.426Z,100486.91
2022-10-21T05:54:44.021Z,100494.50
2022-10-21T05:57:10.532Z,100498.34
2022-10-21T05:59:37.081Z,100504.53
2022-10-21T06:02:03.611Z,100498.34
2022-10-21T06:04:31.337Z,100511.34
2022-10-21T06:06:59.387Z,100515.47
2022-10-21T06:09:26.000Z,100505.84
2022-10-21T06:11:52.634Z,100512.34
2022-10-21T06:14:20.381Z,100505.53
2022-10-21T06:16:46.922Z,100513.91
2022-10-21T06:19:13.534Z,100523.75
2022-10-21T06:21:40.031Z,100524.53
2022-10-21T06:24:06.544Z,100521.91
2022-10-21T06:26:36.048Z,100518.06
2022-10-21T06:29:03.833Z,100513.31
2022-10-21T06:31:30.509Z,100513.59
2022-10-21T06:33:57.161Z,100508.22
2022-10-21T06:36:23.735Z,100506.63
2022-10-21T06:38:50.282Z,100505.34
2022-10-21T06:41:18.063Z,100506.91
2022-10-21T06:43:44.698Z,100508.97
2022-10-21T06:46:14.392Z,100509.75
2022-10-21T06:48:41.503Z,100505.63
2022-10-21T06:51:11.930Z,100487.88
2022-10-21T06:53:39.413Z,100477.06
2022-10-21T06:56:11.788Z,100468.75
2022-10-21T06:58:43.149Z,100464.03
2022-10-21T07:01:27.261Z,100475.47
2022-10-21T07:03:59.032Z,100486.41
2022-10-21T07:06:25.728Z,100485.63
2022-10-21T07:08:59.533Z,100488.50
2022-10-21T07:11:27.545Z,100499.41
2022-10-21T07:13:54.113Z,100497.84
2022-10-21T07:16:29.795Z,100485.91
2022-10-21T07:18:56.668Z,100485.41
2022-10-21T07:21:25.957Z,100493.50
2022-10-21T07:23:56.490Z,100497.94
2022-10-21T07:26:27.207Z,100504.94
2022-10-21T07:28:55.498Z,100516.34
2022-10-21T07:31:22.045Z,100525.22
2022-10-21T07:33:49.154Z,100531.25
2022-10-21T07:36:19.997Z,100525.53
2022-10-21T07:38:48.067Z,100524.53
2022-10-21T07:41:26.949Z,100518.81
2022-10-21T07:43:54.272Z,100511.31
2022-10-21T07:46:21.873Z,100510.81
2022-10-21T07:48:49.002Z,100509.03
2022-10-21T07:51:19.250Z,100514.75
2022-10-21T07:53:45.986Z,100511.09
2022-10-21T07:56:16.698Z,100514.81
2022-10-21T07:58:43.899Z,100502.88
2022-10-21T08:01:11.249Z,100509.91
2022-10-21T08:03:38.870Z,100519.06
2022-10-21T08:06:06.776Z,100519.34
2022-10-21T08:08:34.120Z,100521.69
2022-10-21T08:11:01.535Z,100516.28
2022-10-21T08:13:28.318Z,100516.56
2022-10-21T08:15:56.812Z,100511.91
2022-10-21T08:18:24.482Z,100503.34
2022-10-21T08:20:50.904Z,100511.75
2022-10-21T08:23:20.298Z,100499.97
2022-10-21T08:25:55.846Z,100512.03
2022-10-21T08:28:24.938Z,100511.03
2022-10-21T08:30:51.721Z,100513.41
2022-10-21T08:33:18.238Z,100514.94
2022-10-21T08:35:44.975Z,100509.53
2022-10-21T08:38:11.794Z,100522.03
2022-10-21T08:40:41.541Z,100515.81
2022-10-21T08:43:10.264Z,100515.31
2022-10-21T08:45:48.337Z,100505.47
2022-10-21T08:48:21.894Z,100511.75
2022-10-21T08:50:50.811Z,100497.94
2022-10-21T08:53:35.161Z,100499.03
2022-10-21T08:56:06.429Z,100498.53
2022-10-21T08:58:32.971Z,100489.72
2022-10-21T09:01:12.386Z,100491.81
2022-10-21T09:03:47.036Z,100497.31
2022-10-21T09:06:21.325Z,100488.22
2022-10-21T09:09:12.094Z,100486.94
2022-10-21T09:11:41.526Z,100482.28
2022-10-21T09:14:27.458Z,100479.72
2022-10-21T09:17:21.745Z,100474.28
2022-10-21T09:20:01.734Z,100484.44
2022-10-21T09:23:03.886Z,100483.94
2022-10-21T09:25:30.219Z,100463.69
2022-10-21T09:27:57.306Z,100458.22
2022-10-21T09:30:24.941Z,100460.09
2022-10-21T09:32:56.898Z,100460.38
2022-10-21T09:35:36.334Z,100460.66
2022-10-21T09:38:29.082Z,100460.13
2022-10-21T09:41:03.595Z,100459.63
2022-10-21T09:43:30.710Z,100462.78
2022-10-21T09:45:57.974Z,100459.19
2022-10-21T09:51:40.111Z,100466.28
2022-10-21T09:54:11.623Z,100466.56
2022-10-21T09:56:46.601Z,100474.63
2022-10-21T09:59:14.901Z,100466.63
2022-10-21T10:01:43.410Z,100477.03
2022-10-21T10:04:21.023Z,100483.84
2022-10-21T10:06:47.665Z,100477.88
2022-10-21T10:09:25.504Z,100491.19
2022-10-21T10:12:00.365Z,100488.63
2022-10-21T10:14:31.463Z,100485.53
2022-10-21T10:17:18.471Z,100480.84
2022-10-21T10:20:04.948Z,100482.44
2022-10-21T10:22:38.176Z,100479.84
2022-10-21T10:25:22.733Z,100486.66
2022-10-21T10:27:53.759Z,100485.13
2022-10-21T10:30:22.560Z,100489.84
2022-10-21T10:32:52.226Z,100482.03
2022-10-21T10:35:30.840Z,100479.72
2022-10-21T10:37:59.085Z,100481.06
2022-10-21T10:40:42.135Z,100480.53
2022-10-21T10:43:26.558Z,100474.31
2022-10-21T10:46:00.353Z,100461.28
2022-10-21T10:48:38.543Z,100452.97
2022-10-21T10:51:23.125Z,100459.25
2022-10-21T10:54:17.777Z,100465.53
2022-10-21T10:56:55.962Z,100464.50
2022-10-21T10:59:40.706Z,100459.38
2022-10-21T11:02:10.111Z,100455.47
2022-10-21T11:04:45.930Z,100455.75
2022-10-21T11:07:25.614Z,100456.28
2022-10-21T11:09:56.725Z,100450.84
2022-10-21T11:12:26.452Z,100444.06
2022-10-21T11:14:58.439Z,100440.69
2022-10-21T11:18:00.513Z,100442.28
2022-10-21T11:20:42.520Z,100437.88
2022-10-21T11:23:39.831Z,100439.16
2022-10-21T11:26:19.618Z,100441.00
2022-10-21T11:29:01.376Z,100438.69
2022-10-21T11:32:09.697Z,100433.50
2022-10-21T11:35:00.986Z,100436.66
2022-10-21T11:37:46.408Z,100430.66
2022-10-21T11:40:33.417Z,100426.78
2022-10-21T11:43:28.470Z,100423.66
2022-10-21T11:45:58.456Z,100418.47
2022-10-21T11:48:41.703Z,100419.00
2022-10-21T11:51:24.604Z,100408.81
2022-10-21T11:54:24.842Z,100414.84
2022-10-21T11:57:04.293Z,100413.06
2022-10-21T11:59:53.197Z,100406.28
2022-10-21T12:02:30.191Z,100403.16
2022-10-21T12:05:06.059Z,100408.66
2022-10-21T12:07:43.398Z,100412.31
2022-10-21T12:10:27.267Z,100412.56
2022-10-21T12:12:57.378Z,100408.41
2022-10-21T12:15:43.351Z,100415.22
2022-10-21T12:18:15.882Z,100410.53
2022-10-21T12:20:45.196Z,100404.56
2022-10-21T12:23:15.674Z,100404.28
2022-10-21T12:26:00.396Z,100419.97
2022-10-21T12:28:36.363Z,100408.47
2022-10-21T12:31:33.819Z,100411.91
2022-10-21T12:34:02.383Z,100408.25
2022-10-21T12:36:44.402Z,100412.16
2022-10-21T12:39:18.668Z,100403.31
2022-10-21T12:41:47.663Z,100403.81
2022-10-21T12:44:22.393Z,100416.34
2022-10-21T12:46:52.723Z,100421.88
2022-10-21T12:49:19.186Z,100426.06
2022-10-21T12:51:57.123Z,100427.09
2022-10-21T12:54:30.406Z,100431.78
2022-10-21T12:57:06.437Z,100429.19
2022-10-21T12:59:36.425Z,100435.75
2022-10-21T13:02:05.908Z,100440.41
2022-10-21T13:04:32.236Z,100440.69
2022-10-21T13:07:17.005Z,100443.06
2022-10-21T13:10:05.973Z,100447.75
2022-10-21T13:12:33.436Z,100438.34
2022-10-21T13:15:22.470Z,100432.84
2022-10-21T13:17:57.621Z,100428.94
2022-10-21T13:20:24.133Z,100424.50
2022-10-21T13:23:01.888Z,100428.41
2022-10-21T13:25:32.572Z,100420.59
2022-10-21T13:28:14.215Z,100429.72
2022-10-21T13:30:58.440Z,100434.41
2022-10-21T13:33:27.726Z,100436.25
2022-10-21T13:36:01.359Z,100438.06
2022-10-21T13:38:33.955Z,100437.81
2022-10-21T13:41:07.295Z,100425.78
2022-10-21T13:43:40.026Z,100432.59
2022-10-21T13:46:31.074Z,100423.44
2022-10-21T13:49:00.742Z,100417.41
2022-10-21T13:51:41.036Z,100414.00
2022-10-21T13:54:13.225Z,100412.44
2022-10-21T13:56:40.667Z,100413.47
2022-10-21T13:59:21.225Z,100422.38
2022-10-21T14:01:53.068Z,100414.00
2022-10-21T14:04:25.809Z,100417.63
2022-10-21T14:06:58.497Z,100420.28
2022-10-21T14:09:32.897Z,100421.03
2022-10-21T14:12:04.287Z,100410.56
2022-10-21T14:14:33.331Z,100416.59
2022-10-21T14:17:02.619Z,100412.38
2022-10-21T14:19:32.590Z,100414.22
2022-10-21T14:22:01.171Z,100413.69
2022-10-21T14:24:37.585Z,100404.53
2022-10-21T14:27:05.074Z,100406.88
2022-10-21T14:29:33.867Z,100415.75
2022-10-21T14:32:01.379Z,100416.56
2022-10-21T14:34:33.493Z,100415.50
2022-10-21T14:37:11.156Z,100417.03
2022-10-21T14:39:39.467Z,100411.56
2022-10-21T14:42:12.043Z,100416.31
2022-10-21T14:44:41.426Z,100413.41
2022-10-21T14:47:17.798Z,100412.09
2022-10-21T14:49:49.650Z,100411.56
2022-10-21T14:52:22.004Z,100406.84
2022-10-21T14:54:57.409Z,100407.09
2022-10-21T14:57:42.517Z,100403.72
2022-10-21T15:00:20.123Z,100412.88
2022-10-21T15:02:46.754Z,100411.03
2022-10-21T15:05:38.568Z,100398.22
2022-10-21T15:08:28.792Z,100398.72
2022-10-21T15:10:58.623Z,100403.41
2022-10-21T15:13:26.812Z,100409.16
2022-10-21T15:15:57.469Z,100404.47
2022-10-21T15:18:34.063Z,100400.78
2022-10-21T15:21:03.197Z,100400.53
2022-10-21T15:23:34.199Z,100396.84
2022-10-21T15:26:05.737Z,100403.66
2022-10-21T15:28:34.234Z,100396.31
2022-10-21T15:31:02.588Z,100401.53
2022-10-21T15:33:29.756Z,100401.81
2022-10-21T15:36:04.673Z,100399.19
2022-10-21T15:38:31.172Z,100406.00
2022-10-21T15:40:57.948Z,100411.22
2022-10-21T15:43:25.245Z,100404.94
2022-10-21T15:45:51.822Z,100408.34
2022-10-21T15:48:18.234Z,100413.03
2022-10-21T15:50:44.748Z,100406.50
2022-10-21T15:53:11.561Z,100407.56
2022-10-21T15:55:38.647Z,100412.28
2022-10-21T15:58:06.076Z,100410.94
2022-10-21T16:00:38.527Z,100410.69
2022-10-21T16:03:07.577Z,100420.34
2022-10-21T16:05:34.273Z,100405.72
2022-10-21T16:08:00.833Z,100410.94
2022-10-21T16:10:31.142Z,100410.41
2022-10-21T16:12:58.046Z,100412.53
2022-10-21T16:15:25.174Z,100410.94
2022-10-21T16:17:54.632Z,100405.44
2022-10-21T16:20:29.155Z,100408.06
2022-10-21T16:22:59.228Z,100404.94
2022-10-21T16:25:28.647Z,100410.41
2022-10-21T16:27:56.543Z,100415.63
2022-10-21T16:30:32.273Z,100416.94
2022-10-21T16:32:58.757Z,100425.34
2022-10-21T16:35:26.219Z,100427.16
2022-10-21T16:37:52.799Z,100423.78
2022-10-21T16:40:35.295Z,100418.03
2022-10-21T16:43:01.830Z,100430.03
2022-10-21T16:45:30.551Z,100431.09
2022-10-21T16:47:59.978Z,100424.28
2022-10-21T16:50:40.828Z,100418.53
2022-10-21T16:53:16.899Z,100421.16
2022-10-21T16:55:43.756Z,100425.34
2022-10-21T16:58:10.146Z,100427.16
2022-10-21T17:00:36.608Z,100433.44
2022-10-21T17:03:03.740Z,100438.66
2022-10-21T17:05:30.388Z,100443.66
2022-10-21T17:07:58.466Z,100440.78
2022-10-21T17:10:24.856Z,100454.63
2022-10-21T17:12:56.991Z,100457.50
2022-10-21T17:15:23.422Z,100457.25
2022-10-21T17:17:49.826Z,100446.00
2022-10-21T17:20:16.330Z,100449.13
2022-10-21T17:22:42.808Z,100457.50
2022-10-21T17:25:12.885Z,100451.75
2022-10-21T17:27:39.916Z,100447.31
2022-10-21T17:30:07.237Z,100455.69
2022-10-21T17:32:33.725Z,100460.41
2022-10-21T17:35:00.197Z,100450.19
2022-10-21T17:37:26.650Z,100463.81
2022-10-21T17:39:53.045Z,100459.59
2022-10-21T17:42:19.566Z,100455.69
2022-10-21T17:44:46.015Z,100455.41
2022-10-21T17:47:14.786Z,100464.81
2022-10-21T17:49:41.769Z,100463.81
2022-10-21T17:52:08.930Z,100471.91
2022-10-21T17:54:36.325Z,100479.22
2022-10-21T17:57:03.545Z,100484.97
2022-10-21T17:59:32.569Z,100484.19
2022-10-21T18:01:59.628Z,100486.28
2022-10-21T18:04:26.163Z,100489.72
2022-10-21T18:06:52.589Z,100483.94
2022-10-21T18:09:19.254Z,100487.84
2022-10-21T18:11:45.805Z,100484.97
2022-10-21T18:14:12.710Z,100483.41
2022-10-21T18:16:39.150Z,100480.25
2022-10-21T18:19:05.578Z,100473.75
2022-10-21T18:21:32.155Z,100471.09
2022-10-21T18:23:58.572Z,100466.16
2022-10-21T18:26:27.469Z,100451.47
2022-10-21T18:28:59.605Z,100458.81
2022-10-21T18:31:29.682Z,100455.16
2022-10-21T18:33:58.013Z,100451.25
2022-10-21T18:36:24.605Z,100458.03
2022-10-21T18:38:51.269Z,100452.28
2022-10-21T18:41:20.969Z,100454.63
2022-10-21T18:43:53.156Z,100460.91
2022-10-21T18:46:20.446Z,100457.25
2022-10-21T18:48:47.453Z,100458.81
2022-10-21T18:51:18.883Z,100458.81
2022-10-21T18:53:49.877Z,100458.03
2022-10-21T18:56:18.167Z,100461.44
2022-10-21T18:58:44.823Z,100459.09
2022-10-21T19:01:12.122Z,100467.22
2022-10-21T19:03:38.681Z,100467.22
2022-10-21T19:06:19.234Z,100468.50
2022-10-21T19:08:47.011Z,100475.84
2022-10-21T19:11:13.495Z,100467.22
2022-10-21T19:13:39.958Z,100465.13
2022-10-21T19:16:06.966Z,100477.16
2022-10-21T19:18:33.389Z,100479.00
2022-10-21T19:20:59.758Z,100481.06
2022-10-21T19:23:27.660Z,100479.53
2022-10-21T19:25:54.102Z,100482.91
2022-10-21T19:28:20.774Z,100480.81
2022-10-21T19:30:47.226Z,100489.72
2022-10-21T19:33:13.642Z,100480.81
2022-10-21T19:35:40.039Z,100490.25
2022-10-21T19:38:11.619Z,100486.59
2022-10-21T19:40:46.826Z,100482.66
2022-10-21T19:43:13.213Z,100486.59
2022-10-21T19:45:39.636Z,100491.81
2022-10-21T19:48:07.043Z,100482.94
2022-10-21T19:50:33.526Z,100493.91
2022-10-21T19:52:59.917Z,100488.94
2022-10-21T19:55:37.460Z,100496.00
2022-10-21T19:58:07.394Z,100495.22
2022-10-21T20:00:37.059Z,100502.28
2022-10-21T20:03:05.646Z,100497.31
2022-10-21T20:05:39.013Z,100500.72
2022-10-21T20:08:08.489Z,100494.16
2022-10-21T20:10:38.034Z,100490.75
2022-10-21T20:13:08.689Z,100505.69
2022-10-21T20:15:39.538Z,100506.47
2022-10-21T20:18:10.367Z,100505.16
2022-10-21T20:20:44.066Z,100492.88
2022-10-21T20:23:14.380Z,100499.19
2022-10-21T20:26:02.157Z,100511.72
2022-10-21T20:28:31.591Z,100512.50
2022-10-21T20:31:10.861Z,100519.03
2022-10-21T20:33:44.279Z,100523.22
2022-10-21T20:36:21.086Z,100521.66
2022-10-21T20:38:52.026Z,100515.41
2022-10-21T20:41:24.621Z,100520.09
2022-10-21T20:43:56.421Z,100524.28
2022-10-21T20:46:28.573Z,100527.69
2022-10-21T20:48:59.784Z,100520.91
2022-10-21T20:51:32.303Z,100511.25
2022-10-21T20:54:05.934Z,100531.06
2022-10-21T20:56:38.394Z,100525.84
2022-10-21T20:59:10.409Z,100529.00
2022-10-21T21:01:44.577Z,100525.88
2022-10-21T21:04:17.409Z,100529.00
2022-10-21T21:06:50.043Z,100522.22
2022-10-21T21:09:38.108Z,100519.34
2022-10-21T21:12:07.672Z,100517.00
2022-10-21T21:14:34.480Z,100518.78
2022-10-21T21:17:01.164Z,100513.31
2022-10-21T21:19:27.786Z,100512.78
2022-10-21T21:21:54.444Z,100510.44
2022-10-21T21:24:21.136Z,100510.16
2022-10-21T21:26:47.807Z,100516.19
2022-10-21T21:29:14.743Z,100516.72
2022-10-21T21:31:42.579Z,100512.78
2022-10-21T21:34:09.873Z,100523.25
2022-10-21T21:36:36.939Z,100514.34
2022-10-21T21:39:05.048Z,100521.44
2022-10-21T21:41:31.610Z,100529.53
2022-10-21T21:43:58.356Z,100530.31
2022-10-21T21:46:25.911Z,100529.25
2022-10-21T21:48:56.024Z,100527.19
2022-10-21T21:51:27.381Z,100531.34
2022-10-21T21:53:55.399Z,100537.88
2022-10-21T21:56:23.100Z,100524.03
2022-10-21T21:58:51.636Z,100537.63
2022-10-21T22:01:20.613Z,100536.34
2022-10-21T22:03:49.235Z,100533.47
2022-10-21T22:06:18.152Z,100530.59
2022-10-21T22:08:45.578Z,100541.03
2022-10-21T22:11:14.804Z,100530.81
2022-10-21T22:13:41.721Z,100536.34
2022-10-21T22:16:10.420Z,100538.41
2022-10-21T22:18:37.454Z,100534.00
2022-10-21T22:21:09.482Z,100530.59
2022-10-21T22:23:37.235Z,100539.72
2022-10-21T22:26:04.527Z,100538.16
2022-10-21T22:28:31.376Z,100537.63
2022-10-21T22:31:01.466Z,100532.66
2022-10-21T22:33:29.287Z,100529.53
2022-10-21T22:35:56.443Z,100524.31
2022-10-21T22:38:23.209Z,100533.19
2022-10-21T22:40:58.956Z,100529.53
2022-10-21T22:43:26.960Z,100529.53
2022-10-21T22:46:01.196Z,100529.00
2022-10-21T22:48:40.759Z,100531.63
2022-10-21T22:51:07.342Z,100534.50
2022-10-21T22:53:35.327Z,100539.19
2022-10-21T22:56:01.905Z,100545.72
2022-10-21T22:58:28.612Z,100550.97
2022-10-21T23:03:26.724Z,100553.59
2022-10-21T23:05:53.152Z,100548.34
2022-10-21T23:08:20.437Z,100543.41
2022-10-21T23:10:48.875Z,100544.44
2022-10-21T23:13:15.446Z,100536.84
2022-10-21T23:15:42.006Z,100529.03
2022-10-21T23:18:08.643Z,100527.44
2022-10-21T23:20:35.260Z,100518.03
2022-10-21T23:23:01.818Z,100513.06
2022-10-21T23:25:28.521Z,100521.94
2022-10-21T23:27:55.331Z,100517.25
2022-10-21T23:30:23.758Z,100518.03
2022-10-21T23:32:50.451Z,100515.69
2022-10-21T23:35:17.718Z,100532.69
2022-10-21T23:37:44.469Z,100531.09
2022-10-21T23:40:12.269Z,100531.91
2022-10-21T23:42:42.725Z,100536.84
2022-10-21T23:45:11.086Z,100531.63
2022-10-21T23:47:39.120Z,100525.34
2022-10-21T23:50:07.267Z,100523.81
2022-10-21T23:52:33.736Z,100523.81
2022-10-21T23:55:00.231Z,100523.81
2022-10-21T23:57:26.859Z,100523.81
2022-10-21T23:59:53.422Z,100522.22
